createdAt,value
2022-11-25T00:01:07.391Z,87.67
2022-11-25T00:03:35.426Z,87.99
2022-11-25T00:06:12.918Z,87.99
2022-11-25T00:08:40.704Z,87.83
2022-11-25T00:11:08.523Z,87.85
2022-11-25T00:13:36.562Z,87.83
2022-11-25T00:16:05.616Z,87.99
2022-11-25T00:18:33.556Z,88.19
2022-11-25T00:21:05.937Z,88.23
2022-11-25T00:23:36.097Z,88.15
2022-11-25T00:26:09.877Z,88.21
2022-11-25T00:28:41.678Z,88.18
2022-11-25T00:31:12.788Z,88.40
2022-11-25T00:33:41.197Z,88.54
2022-11-25T00:36:16.087Z,88.57
2022-11-25T00:38:45.615Z,88.52
2022-11-25T00:41:32.130Z,88.47
2022-11-25T00:44:18.104Z,88.54
2022-11-25T00:46:45.472Z,88.60
2022-11-25T00:49:12.862Z,88.80
2022-11-25T00:51:40.805Z,88.63
2022-11-25T00:54:10.571Z,88.69
2022-11-25T00:56:38.568Z,88.33
2022-11-25T00:59:05.975Z,88.46
2022-11-25T01:01:33.298Z,88.77
2022-11-25T01:04:03.723Z,88.41
2022-11-25T01:06:34.428Z,88.52
2022-11-25T01:09:01.992Z,88.32
2022-11-25T01:11:30.974Z,88.40
2022-11-25T01:14:01.393Z,88.49
2022-11-25T01:16:30.258Z,88.32
2022-11-25T01:19:01.767Z,88.46
2022-11-25T01:21:31.884Z,88.34
2022-11-25T01:24:01.606Z,88.67
2022-11-25T01:26:31.023Z,88.39
2022-11-25T01:29:00.121Z,88.36
2022-11-25T01:31:29.468Z,88.07
2022-11-25T01:33:59.067Z,87.94
2022-11-25T01:36:26.680Z,88.39
2022-11-25T01:38:55.602Z,88.30
2022-11-25T01:41:26.462Z,87.91
2022-11-25T01:44:10.232Z,88.18
2022-11-25T01:46:49.290Z,88.39
2022-11-25T01:49:20.811Z,88.17
2022-11-25T01:51:55.049Z,88.56
2022-11-25T01:54:27.156Z,88.51
2022-11-25T01:57:00.445Z,88.45
2022-11-25T01:59:33.584Z,88.42
2022-11-25T02:02:02.649Z,88.32
2022-11-25T02:04:34.871Z,88.64
2022-11-25T02:07:09.471Z,88.61
2022-11-25T02:09:39.643Z,88.36
2022-11-25T02:12:08.536Z,88.51
2022-11-25T02:15:00.106Z,88.55
2022-11-25T02:17:28.010Z,88.49
2022-11-25T02:20:01.437Z,88.31
2022-11-25T02:22:45.451Z,88.24
2022-11-25T02:25:20.908Z,88.59
2022-11-25T02:27:52.798Z,88.61
2022-11-25T02:30:20.900Z,88.61
2022-11-25T02:32:49.551Z,88.51
2022-11-25T02:35:29.027Z,88.58
2022-11-25T02:38:00.865Z,88.84
2022-11-25T02:40:30.290Z,88.54
2022-11-25T02:43:00.716Z,88.37
2022-11-25T02:45:37.536Z,88.47
2022-11-25T02:48:06.277Z,88.78
2022-11-25T02:50:34.280Z,88.55
2022-11-25T02:53:01.688Z,88.70
2022-11-25T02:55:30.605Z,88.74
2022-11-25T02:57:57.969Z,88.50
2022-11-25T03:00:25.949Z,89.12
2022-11-25T03:02:54.595Z,88.97
2022-11-25T03:05:22.057Z,89.06
2022-11-25T03:07:51.779Z,88.93
2022-11-25T03:10:23.366Z,89.31
2022-11-25T03:12:52.146Z,89.17
2022-11-25T03:15:19.683Z,89.81
2022-11-25T03:17:47.190Z,89.34
2022-11-25T03:20:15.333Z,89.35
2022-11-25T03:22:43.238Z,89.51
2022-11-25T03:25:12.158Z,89.56
2022-11-25T03:27:40.385Z,90.11
2022-11-25T03:30:12.666Z,89.60
2022-11-25T03:32:40.924Z,89.52
2022-11-25T03:35:09.597Z,89.27
2022-11-25T03:37:37.345Z,89.70
2022-11-25T03:40:08.651Z,89.55
2022-11-25T03:42:36.329Z,89.56
2022-11-25T03:45:06.129Z,89.18
2022-11-25T03:47:34.857Z,89.41
2022-11-25T03:50:03.975Z,89.46
2022-11-25T03:52:32.266Z,89.38
2022-11-25T03:55:01.882Z,88.65
2022-11-25T03:57:32.227Z,89.07
2022-11-25T03:59:59.665Z,88.88
2022-11-25T04:02:27.507Z,89.11
2022-11-25T04:04:56.794Z,89.41
2022-11-25T04:07:24.174Z,88.87
2022-11-25T04:09:52.035Z,89.14
2022-11-25T04:12:42.897Z,89.48
2022-11-25T04:15:10.724Z,88.97
2022-11-25T04:17:40.950Z,88.88
2022-11-25T04:20:11.888Z,89.16
2022-11-25T04:22:41.565Z,89.10
2022-11-25T04:25:10.333Z,89.17
2022-11-25T04:27:37.648Z,89.14
2022-11-25T04:30:06.781Z,89.32
2022-11-25T04:32:38.394Z,89.15
2022-11-25T04:35:09.863Z,89.07
2022-11-25T04:37:38.772Z,89.17
2022-11-25T04:40:07.593Z,89.32
2022-11-25T04:42:36.725Z,89.31
2022-11-25T04:45:24.991Z,89.29
2022-11-25T04:47:54.668Z,89.32
2022-11-25T04:50:24.550Z,88.96
2022-11-25T04:52:59.420Z,89.00
2022-11-25T04:55:27.245Z,88.99
2022-11-25T04:57:55.937Z,89.35
2022-11-25T05:00:24.024Z,88.98
2022-11-25T05:02:51.446Z,89.11
2022-11-25T05:05:21.237Z,89.27
2022-11-25T05:07:51.065Z,89.16
2022-11-25T05:10:20.531Z,89.31
2022-11-25T05:12:49.541Z,89.12
2022-11-25T05:15:20.775Z,89.06
2022-11-25T05:17:48.393Z,89.52
2022-11-25T05:20:19.794Z,89.24
2022-11-25T05:22:48.375Z,89.21
2022-11-25T05:25:21.579Z,89.22
2022-11-25T05:28:12.844Z,89.03
2022-11-25T05:30:42.609Z,89.55
2022-11-25T05:33:09.958Z,89.35
2022-11-25T05:35:37.201Z,88.97
2022-11-25T05:38:04.517Z,89.06
2022-11-25T05:40:34.283Z,89.13
2022-11-25T05:43:09.287Z,89.35
2022-11-25T05:45:39.530Z,89.01
2022-11-25T05:48:09.016Z,89.03
2022-11-25T05:50:37.830Z,88.77
2022-11-25T05:53:17.396Z,89.33
2022-11-25T05:55:54.673Z,89.12
2022-11-25T05:58:31.090Z,89.18
2022-11-25T06:00:59.999Z,89.61
2022-11-25T06:03:29.429Z,88.85
2022-11-25T06:05:57.561Z,89.34
2022-11-25T06:08:26.261Z,89.50
2022-11-25T06:10:55.107Z,89.55
2022-11-25T06:13:25.730Z,89.48
2022-11-25T06:15:55.059Z,89.23
2022-11-25T06:18:22.603Z,89.34
2022-11-25T06:20:56.636Z,89.71
2022-11-25T06:23:24.216Z,89.88
2022-11-25T06:25:52.746Z,89.57
2022-11-25T06:28:21.976Z,90.05
2022-11-25T06:30:50.604Z,89.84
2022-11-25T06:33:27.275Z,89.82
2022-11-25T06:35:56.254Z,90.19
2022-11-25T06:38:23.475Z,90.02
2022-11-25T06:40:53.125Z,89.90
2022-11-25T06:43:22.824Z,90.33
2022-11-25T06:45:50.127Z,90.29
2022-11-25T06:48:18.964Z,90.19
2022-11-25T06:50:56.743Z,90.39
2022-11-25T06:53:24.419Z,90.59
2022-11-25T06:56:02.868Z,90.43
2022-11-25T06:58:36.162Z,90.91
2022-11-25T07:01:06.930Z,90.61
2022-11-25T07:03:34.857Z,90.72
2022-11-25T07:06:03.283Z,90.62
2022-11-25T07:08:34.148Z,90.83
2022-11-25T07:11:07.730Z,90.88
2022-11-25T07:13:36.509Z,91.09
2022-11-25T07:16:05.697Z,91.11
2022-11-25T07:18:35.452Z,90.85
2022-11-25T07:21:05.023Z,91.16
2022-11-25T07:23:32.326Z,91.04
2022-11-25T07:26:03.195Z,90.96
2022-11-25T07:28:30.505Z,91.30
2022-11-25T07:31:24.761Z,91.31
2022-11-25T07:33:53.829Z,91.50
2022-11-25T07:36:21.673Z,91.50
2022-11-25T07:38:49.626Z,91.42
2022-11-25T07:41:19.395Z,91.50
2022-11-25T07:43:47.913Z,91.54
2022-11-25T07:46:26.273Z,91.50
2022-11-25T07:48:55.084Z,91.64
2022-11-25T07:51:24.423Z,91.07
2022-11-25T07:53:53.798Z,91.30
2022-11-25T07:56:21.937Z,91.15
2022-11-25T07:58:49.338Z,91.59
2022-11-25T08:01:19.151Z,91.26
2022-11-25T08:03:48.169Z,91.12
2022-11-25T08:06:18.007Z,91.11
2022-11-25T08:08:46.057Z,91.26
2022-11-25T08:11:15.347Z,91.16
2022-11-25T08:13:43.582Z,91.15
2022-11-25T08:16:13.116Z,91.15
2022-11-25T08:18:42.346Z,90.81
2022-11-25T08:21:12.752Z,90.83
2022-11-25T08:23:42.957Z,90.90
2022-11-25T08:26:12.261Z,91.01
2022-11-25T08:28:43.931Z,90.70
2022-11-25T08:31:15.440Z,90.94
2022-11-25T08:33:44.822Z,90.85
2022-11-25T08:36:16.549Z,90.83
2022-11-25T08:38:50.793Z,90.93
2022-11-25T08:41:23.795Z,90.78
2022-11-25T08:43:51.311Z,90.80
2022-11-25T08:46:20.624Z,90.89
2022-11-25T08:48:52.681Z,90.54
2022-11-25T08:51:24.752Z,90.75
2022-11-25T08:53:52.517Z,90.35
2022-11-25T08:56:25.711Z,90.53
2022-11-25T08:58:53.842Z,90.66
2022-11-25T09:01:23.611Z,90.52
2022-11-25T09:03:55.575Z,90.37
2022-11-25T09:06:26.033Z,90.37
2022-11-25T09:08:56.845Z,90.55
2022-11-25T09:11:25.102Z,90.33
2022-11-25T09:13:52.764Z,90.42
2022-11-25T09:16:21.037Z,90.30
2022-11-25T09:18:55.831Z,90.26
2022-11-25T09:21:28.297Z,90.43
2022-11-25T09:23:58.522Z,90.39
2022-11-25T09:26:28.837Z,90.50
2022-11-25T09:28:57.827Z,90.66
2022-11-25T09:31:27.657Z,90.52
2022-11-25T09:33:56.641Z,90.44
2022-11-25T09:36:24.929Z,90.62
2022-11-25T09:38:53.722Z,90.31
2022-11-25T09:41:59.605Z,90.28
2022-11-25T09:45:04.201Z,90.28
2022-11-25T09:47:45.222Z,90.25
2022-11-25T09:50:20.854Z,89.86
2022-11-25T09:52:57.678Z,90.07
2022-11-25T09:55:30.947Z,90.13
2022-11-25T09:58:04.908Z,90.09
2022-11-25T10:00:39.619Z,89.88
2022-11-25T10:03:15.588Z,89.85
2022-11-25T10:05:47.436Z,89.83
2022-11-25T10:08:19.634Z,90.26
2022-11-25T10:10:51.188Z,89.58
2022-11-25T10:13:26.739Z,89.67
2022-11-25T10:15:59.513Z,89.78
2022-11-25T10:18:33.598Z,89.75
2022-11-25T10:21:00.822Z,89.70
2022-11-25T10:23:32.940Z,89.67
2022-11-25T10:26:08.710Z,89.67
2022-11-25T10:28:36.779Z,89.36
2022-11-25T10:31:10.432Z,89.52
2022-11-25T10:33:41.830Z,89.55
2022-11-25T10:36:15.522Z,89.39
2022-11-25T10:38:49.882Z,89.46
2022-11-25T10:41:23.878Z,89.56
2022-11-25T10:43:51.369Z,89.42
2022-11-25T10:46:50.069Z,89.55
2022-11-25T10:49:29.191Z,89.43
2022-11-25T10:51:59.558Z,89.17
2022-11-25T10:54:28.403Z,89.21
2022-11-25T10:56:59.984Z,89.17
2022-11-25T10:59:30.476Z,89.18
2022-11-25T11:02:17.246Z,89.54
2022-11-25T11:04:54.786Z,89.47
2022-11-25T11:07:22.890Z,89.53
2022-11-25T11:09:50.714Z,89.44
2022-11-25T11:12:22.408Z,89.79
2022-11-25T11:14:50.577Z,89.50
2022-11-25T11:17:38.357Z,89.62
2022-11-25T11:20:22.623Z,89.63
2022-11-25T11:22:55.910Z,89.76
2022-11-25T11:25:31.240Z,89.98
2022-11-25T11:28:01.400Z,89.35
2022-11-25T11:30:33.953Z,89.75
2022-11-25T11:33:06.126Z,89.66
2022-11-25T11:35:55.992Z,89.49
2022-11-25T11:38:34.417Z,89.58
2022-11-25T11:41:20.383Z,89.45
2022-11-25T11:44:11.344Z,89.54
2022-11-25T11:46:59.903Z,89.72
2022-11-25T11:49:46.120Z,89.73
2022-11-25T11:52:26.507Z,89.56
2022-11-25T11:54:59.644Z,89.24
2022-11-25T11:57:35.894Z,89.54
2022-11-25T12:00:10.649Z,89.58
2022-11-25T12:02:55.718Z,89.71
2022-11-25T12:05:26.845Z,89.51
2022-11-25T12:08:06.341Z,89.29
2022-11-25T12:10:39.236Z,89.66
2022-11-25T12:13:18.152Z,89.33
2022-11-25T12:15:55.461Z,89.50
2022-11-25T12:18:45.150Z,89.27
2022-11-25T12:21:26.831Z,89.75
2022-11-25T12:23:59.663Z,89.41
2022-11-25T12:26:33.456Z,89.43
2022-11-25T12:29:05.516Z,89.70
2022-11-25T12:31:39.876Z,89.56
2022-11-25T12:34:12.772Z,89.57
2022-11-25T12:36:43.688Z,89.67
2022-11-25T12:39:21.514Z,89.17
2022-11-25T12:41:55.620Z,89.62
2022-11-25T12:44:30.595Z,89.51
2022-11-25T12:47:00.407Z,89.73
2022-11-25T12:49:33.403Z,89.84
2022-11-25T12:52:33.238Z,89.69
2022-11-25T12:55:10.042Z,89.53
2022-11-25T12:57:53.153Z,89.79
2022-11-25T13:00:41.093Z,89.71
2022-11-25T13:04:00.846Z,89.71
2022-11-25T13:07:00.514Z,89.68
2022-11-25T13:09:47.755Z,89.54
2022-11-25T13:12:27.973Z,89.60
2022-11-25T13:15:14.316Z,89.49
2022-11-25T13:17:45.467Z,89.51
2022-11-25T13:20:33.136Z,89.76
2022-11-25T13:23:08.621Z,89.60
2022-11-25T13:25:39.485Z,89.60
2022-11-25T13:28:31.258Z,89.55
2022-11-25T13:31:20.590Z,89.38
2022-11-25T13:34:24.866Z,89.50
2022-11-25T13:36:54.181Z,89.63
2022-11-25T13:39:31.279Z,89.31
2022-11-25T13:42:05.460Z,89.27
2022-11-25T13:44:36.064Z,89.42
2022-11-25T13:47:33.141Z,89.35
2022-11-25T13:50:02.926Z,88.83
2022-11-25T13:52:38.175Z,89.10
2022-11-25T13:55:24.369Z,88.98
2022-11-25T13:58:05.427Z,89.50
2022-11-25T14:01:01.703Z,89.06
2022-11-25T14:03:45.786Z,89.04
2022-11-25T14:06:28.807Z,89.06
2022-11-25T14:09:02.957Z,89.03
2022-11-25T14:11:44.209Z,88.75
2022-11-25T14:14:49.480Z,88.69
2022-11-25T14:17:38.405Z,88.74
2022-11-25T14:20:31.043Z,88.71
2022-11-25T14:23:36.844Z,88.85
2022-11-25T14:26:26.711Z,88.92
2022-11-25T14:29:01.295Z,89.06
2022-11-25T14:31:38.387Z,88.63
2022-11-25T14:34:13.425Z,87.93
2022-11-25T14:36:45.625Z,88.77
2022-11-25T14:39:21.278Z,88.47
2022-11-25T14:41:57.662Z,88.84
2022-11-25T14:44:29.716Z,88.58
2022-11-25T14:46:59.143Z,88.50
2022-11-25T14:49:51.636Z,88.69
2022-11-25T14:52:26.767Z,88.82
2022-11-25T14:54:56.149Z,88.78
2022-11-25T14:57:27.057Z,89.04
2022-11-25T14:59:57.844Z,89.19
2022-11-25T15:02:29.754Z,88.82
2022-11-25T15:05:16.630Z,88.92
2022-11-25T15:07:56.106Z,89.05
2022-11-25T15:10:36.702Z,88.96
2022-11-25T15:13:14.326Z,88.85
2022-11-25T15:15:47.734Z,88.82
2022-11-25T15:18:21.647Z,88.82
2022-11-25T15:20:53.419Z,88.72
2022-11-25T15:23:26.323Z,88.70
2022-11-25T15:25:54.862Z,89.16
2022-11-25T15:28:22.468Z,88.71
2022-11-25T15:30:57.523Z,89.20
2022-11-25T15:33:27.328Z,88.93
2022-11-25T15:35:55.662Z,88.88
2022-11-25T15:38:37.463Z,88.91
2022-11-25T15:41:06.307Z,88.54
2022-11-25T15:43:38.902Z,88.59
2022-11-25T15:46:06.994Z,88.28
2022-11-25T15:48:40.453Z,88.45
2022-11-25T15:51:17.758Z,88.50
2022-11-25T15:53:47.063Z,88.35
2022-11-25T15:56:22.164Z,88.34
2022-11-25T15:58:49.409Z,88.25
2022-11-25T16:01:21.978Z,88.17
2022-11-25T16:03:51.875Z,88.24
2022-11-25T16:06:21.444Z,88.21
2022-11-25T16:08:56.839Z,88.38
2022-11-25T16:11:25.752Z,88.35
2022-11-25T16:13:53.880Z,88.11
2022-11-25T16:16:24.285Z,88.56
2022-11-25T16:19:11.817Z,88.32
2022-11-25T16:21:52.075Z,88.36
2022-11-25T16:24:32.931Z,88.33
2022-11-25T16:27:03.009Z,88.42
2022-11-25T16:29:33.808Z,88.25
2022-11-25T16:32:06.284Z,88.31
2022-11-25T16:34:35.110Z,88.35
2022-11-25T16:37:02.478Z,88.29
2022-11-25T16:39:30.086Z,88.59
2022-11-25T16:42:02.105Z,88.93
2022-11-25T16:44:30.117Z,88.71
2022-11-25T16:46:57.847Z,88.44
2022-11-25T16:49:26.565Z,88.57
2022-11-25T16:51:55.200Z,88.56
2022-11-25T16:54:23.557Z,88.74
2022-11-25T16:56:53.174Z,89.04
2022-11-25T16:59:25.861Z,88.74
2022-11-25T17:01:53.547Z,88.76
2022-11-25T17:04:20.990Z,88.74
2022-11-25T17:07:16.490Z,88.73
2022-11-25T17:09:37.101Z,88.89
2022-11-25T17:12:07.396Z,88.84
2022-11-25T17:14:36.536Z,89.22
2022-11-25T17:17:04.588Z,89.16
2022-11-25T17:19:32.198Z,89.07
2022-11-25T17:21:59.586Z,89.27
2022-11-25T17:24:27.284Z,89.27
2022-11-25T17:26:59.258Z,89.36
2022-11-25T17:29:32.828Z,89.37
2022-11-25T17:32:00.221Z,89.40
2022-11-25T17:34:27.506Z,89.64
2022-11-25T17:36:54.710Z,89.61
2022-11-25T17:39:21.974Z,89.68
2022-11-25T17:41:51.251Z,89.99
2022-11-25T17:44:25.943Z,89.69
2022-11-25T17:46:53.647Z,89.92
2022-11-25T17:49:21.544Z,90.22
2022-11-25T17:51:48.906Z,89.60
2022-11-25T17:54:16.748Z,89.89
2022-11-25T17:56:51.795Z,90.10
2022-11-25T17:59:26.830Z,89.96
2022-11-25T18:01:56.169Z,90.11
2022-11-25T18:04:25.248Z,89.90
2022-11-25T18:06:53.128Z,90.31
2022-11-25T18:09:20.864Z,90.22
2022-11-25T18:11:50.877Z,90.09
2022-11-25T18:14:25.256Z,90.09
2022-11-25T18:16:55.298Z,90.24
2022-11-25T18:19:22.604Z,89.98
2022-11-25T18:21:50.224Z,89.86
2022-11-25T18:24:17.406Z,89.90
2022-11-25T18:26:51.483Z,90.21
2022-11-25T18:29:23.818Z,89.90
2022-11-25T18:31:51.349Z,90.07
2022-11-25T18:34:20.162Z,89.88
2022-11-25T18:36:47.561Z,90.07
2022-11-25T18:39:14.720Z,89.88
2022-11-25T18:41:42.877Z,89.88
2022-11-25T18:44:25.820Z,89.95
2022-11-25T18:46:54.222Z,90.10
2022-11-25T18:49:23.985Z,89.71
2022-11-25T18:51:51.479Z,89.71
2022-11-25T18:54:18.950Z,89.58
2022-11-25T18:56:50.075Z,89.58
2022-11-25T18:59:26.972Z,89.73
2022-11-25T19:01:54.536Z,89.85
2022-11-25T19:04:23.513Z,89.66
2022-11-25T19:06:50.882Z,89.33
2022-11-25T19:09:18.121Z,89.88
2022-11-25T19:11:49.515Z,89.42
2022-11-25T19:14:30.182Z,89.56
2022-11-25T19:17:02.029Z,89.68
2022-11-25T19:19:31.013Z,89.54
2022-11-25T19:22:01.476Z,89.55
2022-11-25T19:24:29.468Z,89.69
2022-11-25T19:26:57.573Z,89.46
2022-11-25T19:29:31.558Z,89.39
2022-11-25T19:32:02.120Z,89.70
2022-11-25T19:34:33.904Z,89.53
2022-11-25T19:37:01.306Z,89.74
2022-11-25T19:39:28.793Z,89.82
2022-11-25T19:41:56.176Z,89.54
2022-11-25T19:44:23.439Z,89.85
2022-11-25T19:47:14.355Z,89.82
2022-11-25T19:49:39.367Z,89.79
2022-11-25T19:52:15.165Z,89.67
2022-11-25T19:54:42.574Z,89.75
2022-11-25T19:57:15.865Z,90.08
2022-11-25T19:59:43.066Z,89.84
2022-11-25T20:02:14.419Z,89.90
2022-11-25T20:04:44.256Z,89.91
2022-11-25T20:07:13.392Z,89.95
2022-11-25T20:09:41.023Z,89.87
2022-11-25T20:12:20.295Z,89.94
2022-11-25T20:14:48.087Z,90.13
2022-11-25T20:17:22.333Z,89.82
2022-11-25T20:19:52.655Z,90.34
2022-11-25T20:22:24.247Z,90.27
2022-11-25T20:24:52.530Z,89.94
2022-11-25T20:27:22.497Z,90.06
2022-11-25T20:29:49.944Z,90.05
2022-11-25T20:32:25.992Z,90.19
2022-11-25T20:34:54.628Z,90.47
2022-11-25T20:37:24.959Z,90.60
2022-11-25T20:39:54.138Z,90.43
2022-11-25T20:42:22.601Z,90.27
2022-11-25T20:44:53.312Z,90.49
2022-11-25T20:47:26.455Z,90.42
2022-11-25T20:49:55.678Z,90.43
2022-11-25T20:52:29.588Z,90.86
2022-11-25T20:54:57.302Z,90.49
2022-11-25T20:57:24.659Z,90.63
2022-11-25T20:59:51.928Z,90.40
2022-11-25T21:02:21.591Z,90.58
2022-11-25T21:04:49.082Z,90.63
2022-11-25T21:07:18.110Z,90.87
2022-11-25T21:09:45.445Z,90.75
2022-11-25T21:12:18.934Z,90.55
2022-11-25T21:14:47.323Z,90.68
2022-11-25T21:17:14.723Z,90.71
2022-11-25T21:19:42.011Z,90.62
2022-11-25T21:22:13.690Z,90.60
2022-11-25T21:24:43.078Z,90.58
2022-11-25T21:27:14.460Z,90.93
2022-11-25T21:29:43.787Z,90.65
2022-11-25T21:32:20.621Z,90.57
2022-11-25T21:34:48.129Z,90.72
2022-11-25T21:37:16.357Z,90.54
2022-11-25T21:39:45.137Z,90.51
2022-11-25T21:42:18.601Z,90.69
2022-11-25T21:44:46.738Z,90.66
2022-11-25T21:47:14.437Z,90.44
2022-11-25T21:49:41.859Z,90.89
2022-11-25T21:52:09.192Z,90.60
2022-11-25T21:54:36.833Z,90.59
2022-11-25T21:57:05.843Z,90.49
2022-11-25T21:59:33.205Z,90.64
2022-11-25T22:02:00.459Z,90.56
2022-11-25T22:04:29.166Z,90.27
2022-11-25T22:06:56.353Z,90.33
2022-11-25T22:09:23.600Z,90.40
2022-11-25T22:11:53.087Z,90.55
2022-11-25T22:14:29.037Z,90.42
2022-11-25T22:16:56.602Z,90.56
2022-11-25T22:19:26.753Z,90.53
2022-11-25T22:21:54.136Z,90.26
2022-11-25T22:24:22.681Z,90.49
2022-11-25T22:26:57.483Z,90.87
2022-11-25T22:29:33.045Z,90.30
2022-11-25T22:32:00.789Z,90.54
2022-11-25T22:34:28.613Z,90.48
2022-11-25T22:36:56.090Z,90.43
2022-11-25T22:39:25.668Z,90.12
2022-11-25T22:41:55.807Z,90.76
2022-11-25T22:44:28.679Z,90.61
2022-11-25T22:46:56.025Z,90.43
2022-11-25T22:49:30.486Z,90.39
2022-11-25T22:51:58.236Z,90.48
2022-11-25T22:54:25.616Z,90.68
2022-11-25T22:56:52.828Z,90.63
2022-11-25T22:59:20.211Z,90.68
2022-11-25T23:01:49.043Z,90.88
2022-11-25T23:04:18.439Z,90.46
2022-11-25T23:06:46.560Z,90.64
2022-11-25T23:09:16.349Z,90.26
2022-11-25T23:11:43.912Z,90.89
2022-11-25T23:14:11.717Z,90.54
2022-11-25T23:16:40.015Z,91.14
2022-11-25T23:19:13.785Z,90.85
2022-11-25T23:21:40.981Z,90.86
2022-11-25T23:24:12.631Z,90.99
2022-11-25T23:29:25.117Z,90.70
2022-11-25T23:31:52.339Z,90.86
2022-11-25T23:34:21.795Z,91.03
2022-11-25T23:36:49.458Z,90.77
2022-11-25T23:39:21.728Z,91.10
2022-11-25T23:41:49.176Z,90.91
2022-11-25T23:44:22.716Z,90.80
2022-11-25T23:46:50.879Z,90.60
2022-11-25T23:49:24.221Z,90.64
2022-11-25T23:51:52.057Z,90.96
2022-11-25T23:54:21.883Z,90.77
2022-11-25T23:56:49.285Z,90.97
2022-11-25T23:59:17.200Z,90.77
